createdAt,value
2022-10-13T00:00:41.382Z,14.10
2022-10-13T00:03:11.626Z,13.97
2022-10-13T00:05:42.851Z,15.93
2022-10-13T00:08:11.551Z,17.67
2022-10-13T00:10:41.616Z,22.40
2022-10-13T00:13:10.196Z,21.93
2022-10-13T00:15:39.889Z,18.20
2022-10-13T00:18:08.631Z,17.20
2022-10-13T00:20:44.059Z,15.53
2022-10-13T00:23:13.978Z,14.40
2022-10-13T00:25:43.576Z,15.00
2022-10-13T00:28:13.731Z,14.53
2022-10-13T00:30:43.121Z,15.00
2022-10-13T00:33:13.130Z,15.90
2022-10-13T00:35:47.150Z,13.37
2022-10-13T00:38:16.579Z,14.27
2022-10-13T00:40:46.205Z,13.70
2022-10-13T00:43:19.090Z,13.77
2022-10-13T00:45:49.997Z,13.87
2022-10-13T00:48:20.182Z,14.50
2022-10-13T00:50:50.493Z,12.60
2022-10-13T00:53:21.799Z,13.20
2022-10-13T00:55:52.015Z,12.80
2022-10-13T00:58:23.121Z,13.57
2022-10-13T01:00:52.988Z,13.53
2022-10-13T01:03:21.780Z,14.07
2022-10-13T01:05:52.444Z,13.37
2022-10-13T01:08:22.214Z,13.27
2022-10-13T01:10:57.914Z,14.93
2022-10-13T01:13:35.701Z,13.00
2022-10-13T01:16:14.015Z,12.50
2022-10-13T01:18:51.513Z,13.77
2022-10-13T01:21:27.368Z,13.57
2022-10-13T01:24:29.427Z,12.63
2022-10-13T01:27:10.293Z,14.53
2022-10-13T01:30:05.327Z,12.70
2022-10-13T01:32:51.943Z,13.90
2022-10-13T01:35:26.174Z,13.20
2022-10-13T01:38:03.381Z,14.50
2022-10-13T01:40:38.185Z,13.03
2022-10-13T01:43:11.803Z,13.13
2022-10-13T01:45:47.539Z,15.23
2022-10-13T01:48:17.993Z,13.43
2022-10-13T01:50:46.694Z,13.83
2022-10-13T01:53:17.920Z,15.77
2022-10-13T01:55:53.841Z,14.93
2022-10-13T01:58:23.154Z,14.20
2022-10-13T02:01:04.535Z,15.27
2022-10-13T02:03:45.040Z,14.77
2022-10-13T02:06:22.065Z,13.77
2022-10-13T02:08:59.875Z,14.17
2022-10-13T02:11:29.727Z,15.00
2022-10-13T02:14:04.386Z,14.80
2022-10-13T02:16:37.902Z,13.73
2022-10-13T02:19:07.542Z,13.40
2022-10-13T02:21:37.138Z,14.70
2022-10-13T02:24:06.597Z,14.43
2022-10-13T02:26:36.162Z,14.87
2022-10-13T02:29:10.668Z,14.27
2022-10-13T02:31:41.292Z,14.63
2022-10-13T02:34:09.394Z,16.00
2022-10-13T02:36:39.124Z,14.17
2022-10-13T02:39:08.402Z,14.80
2022-10-13T02:41:37.818Z,15.77
2022-10-13T02:44:07.050Z,15.23
2022-10-13T02:46:35.400Z,17.70
2022-10-13T02:49:04.944Z,17.43
2022-10-13T02:51:38.935Z,17.30
2022-10-13T02:54:08.170Z,18.13
2022-10-13T02:56:36.322Z,19.33
2022-10-13T02:59:04.946Z,17.13
2022-10-13T03:01:33.024Z,17.97
2022-10-13T03:04:01.165Z,18.90
2022-10-13T03:06:30.727Z,19.20
2022-10-13T03:08:59.288Z,20.63
2022-10-13T03:11:27.349Z,18.63
2022-10-13T03:13:55.477Z,20.03
2022-10-13T03:16:23.828Z,18.57
2022-10-13T03:18:51.895Z,17.33
2022-10-13T03:21:20.139Z,19.60
2022-10-13T03:23:49.628Z,19.20
2022-10-13T03:26:18.040Z,20.43
2022-10-13T03:28:50.528Z,18.83
2022-10-13T03:31:19.165Z,18.10
2022-10-13T03:33:48.014Z,20.83
2022-10-13T03:36:16.149Z,17.97
2022-10-13T03:38:44.390Z,19.97
2022-10-13T03:41:17.063Z,20.00
2022-10-13T03:43:46.203Z,18.10
2022-10-13T03:46:16.562Z,19.57
2022-10-13T03:48:45.024Z,19.13
2022-10-13T03:51:14.962Z,19.07
2022-10-13T03:53:47.121Z,19.87
2022-10-13T03:56:18.851Z,49.27
2022-10-13T03:58:47.416Z,24.60
2022-10-13T04:01:16.983Z,21.77
2022-10-13T04:03:45.225Z,42.20
2022-10-13T04:10:11.151Z,29.07
2022-10-13T04:12:55.909Z,23.47
2022-10-13T04:18:51.066Z,15.43
2022-10-13T04:21:27.168Z,16.13
2022-10-13T04:23:57.176Z,14.20
2022-10-13T04:26:26.843Z,15.20
2022-10-13T04:28:57.181Z,15.60
2022-10-13T04:31:25.735Z,15.37
2022-10-13T04:33:54.940Z,14.77
2022-10-13T04:36:23.086Z,16.83
2022-10-13T04:38:51.139Z,16.30
2022-10-13T04:41:20.421Z,18.27
2022-10-13T04:43:50.421Z,15.90
2022-10-13T04:46:23.001Z,15.13
2022-10-13T04:48:51.852Z,15.77
2022-10-13T04:51:22.288Z,16.20
2022-10-13T04:53:56.282Z,17.70
2022-10-13T04:56:25.393Z,15.97
2022-10-13T04:58:53.487Z,16.40
2022-10-13T05:01:26.357Z,16.73
2022-10-13T05:03:55.456Z,16.43
2022-10-13T05:06:25.621Z,16.07
2022-10-13T05:08:54.127Z,16.90
2022-10-13T05:11:22.362Z,16.80
2022-10-13T05:13:50.997Z,17.17
2022-10-13T05:16:21.188Z,15.90
2022-10-13T05:18:52.647Z,17.10
2022-10-13T05:21:23.087Z,15.30
2022-10-13T05:23:53.903Z,16.30
2022-10-13T05:26:36.920Z,16.40
2022-10-13T05:29:20.740Z,16.50
2022-10-13T05:31:57.995Z,16.30
2022-10-13T05:34:44.975Z,15.40
2022-10-13T05:37:31.537Z,14.60
2022-10-13T05:40:08.671Z,15.67
2022-10-13T05:42:41.912Z,15.27
2022-10-13T05:45:11.739Z,16.20
2022-10-13T05:47:39.841Z,16.20
2022-10-13T05:50:10.579Z,17.20
2022-10-13T05:52:39.366Z,16.00
2022-10-13T05:55:11.521Z,16.63
2022-10-13T05:57:43.729Z,16.80
2022-10-13T06:00:14.760Z,15.57
2022-10-13T06:02:46.095Z,17.33
2022-10-13T06:05:25.484Z,17.00
2022-10-13T06:07:54.885Z,18.63
2022-10-13T06:10:23.365Z,18.47
2022-10-13T06:12:51.560Z,18.90
2022-10-13T06:15:27.116Z,18.47
2022-10-13T06:17:59.942Z,26.70
2022-10-13T06:20:32.644Z,18.17
2022-10-13T06:28:49.809Z,19.00
2022-10-13T06:31:49.059Z,21.40
2022-10-13T06:34:38.454Z,19.53
2022-10-13T06:37:14.871Z,18.87
2022-10-13T06:39:58.451Z,17.37
2022-10-13T06:42:36.419Z,19.07
2022-10-13T06:45:26.283Z,19.10
2022-10-13T06:48:12.125Z,19.30
2022-10-13T06:50:43.037Z,17.23
2022-10-13T06:53:27.538Z,17.13
2022-10-13T06:56:45.285Z,18.43
2022-10-13T06:59:29.457Z,17.30
2022-10-13T07:02:01.601Z,18.10
2022-10-13T07:04:36.729Z,16.07
2022-10-13T07:07:04.910Z,17.83
2022-10-13T07:09:38.375Z,17.40
2022-10-13T07:12:07.747Z,16.63
2022-10-13T07:14:38.191Z,16.77
2022-10-13T07:17:09.528Z,17.80
2022-10-13T07:19:37.851Z,18.07
2022-10-13T07:22:06.446Z,16.03
2022-10-13T07:24:36.038Z,17.00
2022-10-13T07:27:07.639Z,15.97
2022-10-13T07:29:36.611Z,17.23
2022-10-13T07:32:04.826Z,17.00
2022-10-13T07:34:33.108Z,16.30
2022-10-13T07:37:28.443Z,15.07
2022-10-13T07:40:00.395Z,15.63
2022-10-13T07:42:29.244Z,15.47
2022-10-13T07:44:57.441Z,17.20
2022-10-13T07:47:26.707Z,17.90
2022-10-13T07:49:56.788Z,17.43
2022-10-13T07:52:25.096Z,16.87
2022-10-13T07:54:53.994Z,20.23
2022-10-13T07:57:26.863Z,16.27
2022-10-13T07:59:55.068Z,18.70
2022-10-13T08:02:27.706Z,17.53
2022-10-13T08:04:57.625Z,19.53
2022-10-13T08:07:27.782Z,18.47
2022-10-13T08:09:56.979Z,19.30
2022-10-13T08:12:27.994Z,18.90
2022-10-13T08:14:59.386Z,18.40
2022-10-13T08:17:30.341Z,20.23
2022-10-13T08:19:58.207Z,20.27
2022-10-13T08:22:28.390Z,18.73
2022-10-13T08:24:57.493Z,19.00
2022-10-13T08:27:42.181Z,18.30
2022-10-13T08:30:15.300Z,17.47
2022-10-13T08:32:43.692Z,17.60
2022-10-13T08:35:12.364Z,17.57
2022-10-13T08:37:40.888Z,17.33
2022-10-13T08:40:13.840Z,20.40
2022-10-13T08:42:45.763Z,19.13
2022-10-13T08:48:17.177Z,19.40
2022-10-13T08:50:50.727Z,27.17
2022-10-13T08:53:26.734Z,20.50
2022-10-13T08:55:59.787Z,20.53
2022-10-13T08:58:32.056Z,19.63
2022-10-13T09:01:11.355Z,20.00
2022-10-13T09:03:48.298Z,20.23
2022-10-13T09:06:21.663Z,20.50
2022-10-13T09:08:54.367Z,20.10
2022-10-13T09:11:22.939Z,20.63
2022-10-13T09:13:56.660Z,23.00
2022-10-13T09:16:30.269Z,21.90
2022-10-13T09:19:36.525Z,20.70
2022-10-13T09:22:21.248Z,21.30
2022-10-13T09:24:49.462Z,21.00
2022-10-13T09:27:18.757Z,19.47
2022-10-13T09:29:48.475Z,22.20
2022-10-13T09:32:21.104Z,19.87
2022-10-13T09:34:49.961Z,21.63
2022-10-13T09:37:21.003Z,21.90
2022-10-13T09:40:01.430Z,21.53
2022-10-13T09:42:31.837Z,21.77
2022-10-13T09:45:10.836Z,20.80
2022-10-13T09:47:39.977Z,21.80
2022-10-13T09:50:19.012Z,22.03
2022-10-13T09:52:48.703Z,21.53
2022-10-13T09:55:32.924Z,20.50
2022-10-13T09:58:06.820Z,22.10
2022-10-13T10:00:37.628Z,20.67
2022-10-13T10:03:12.018Z,22.77
2022-10-13T10:05:45.783Z,21.67
2022-10-13T10:08:18.188Z,22.00
2022-10-13T10:10:47.445Z,22.77
2022-10-13T10:13:16.640Z,24.23
2022-10-13T10:15:56.685Z,23.17
2022-10-13T10:18:33.206Z,21.90
2022-10-13T10:21:10.842Z,23.40
2022-10-13T10:23:47.330Z,21.70
2022-10-13T10:26:24.301Z,21.03
2022-10-13T10:29:15.258Z,24.63
2022-10-13T10:31:55.279Z,23.70
2022-10-13T10:34:32.147Z,23.17
2022-10-13T10:37:13.915Z,26.37
2022-10-13T10:39:48.473Z,27.30
2022-10-13T10:42:52.203Z,26.60
2022-10-13T10:45:24.475Z,26.30
2022-10-13T10:47:57.826Z,26.03
2022-10-13T10:50:27.601Z,25.50
2022-10-13T10:53:02.864Z,25.93
2022-10-13T10:55:36.403Z,26.30
2022-10-13T10:58:15.917Z,27.27
2022-10-13T11:00:53.014Z,23.67
2022-10-13T11:03:32.366Z,25.20
2022-10-13T11:06:02.939Z,25.90
2022-10-13T11:08:40.023Z,26.43
2022-10-13T11:11:37.246Z,24.17
2022-10-13T11:14:30.245Z,22.77
2022-10-13T11:17:16.030Z,22.97
2022-10-13T11:19:46.235Z,23.27
2022-10-13T11:22:19.635Z,21.67
2022-10-13T11:24:59.383Z,21.37
2022-10-13T11:27:42.034Z,20.80
2022-10-13T11:30:43.569Z,23.83
2022-10-13T11:33:35.020Z,20.47
2022-10-13T11:36:39.508Z,19.97
2022-10-13T11:39:39.627Z,20.03
2022-10-13T11:42:22.369Z,19.80
2022-10-13T11:44:55.465Z,21.70
2022-10-13T11:47:49.599Z,19.70
2022-10-13T11:50:26.229Z,18.90
2022-10-13T11:53:18.727Z,17.27
2022-10-13T11:55:51.292Z,16.57
2022-10-13T11:58:23.091Z,17.17
2022-10-13T12:00:56.339Z,17.20
2022-10-13T12:03:27.744Z,14.47
2022-10-13T12:05:58.872Z,16.50
2022-10-13T12:08:29.486Z,17.90
2022-10-13T12:11:00.118Z,17.80
2022-10-13T12:13:30.407Z,16.87
2022-10-13T12:16:01.025Z,15.80
2022-10-13T12:18:34.256Z,15.40
2022-10-13T12:21:04.638Z,16.70
2022-10-13T12:23:34.136Z,21.20
2022-10-13T12:26:02.447Z,18.80
2022-10-13T12:28:31.811Z,16.67
2022-10-13T12:31:01.037Z,15.70
2022-10-13T12:33:31.474Z,15.20
2022-10-13T12:36:13.973Z,15.33
2022-10-13T12:38:48.506Z,14.67
2022-10-13T12:41:20.094Z,14.30
2022-10-13T12:43:48.290Z,14.33
2022-10-13T12:46:37.407Z,15.83
2022-10-13T12:49:06.428Z,17.60
2022-10-13T12:51:35.567Z,15.70
2022-10-13T12:54:10.645Z,17.03
2022-10-13T12:56:38.735Z,16.30
2022-10-13T12:59:07.127Z,16.57
2022-10-13T13:01:38.343Z,16.83
2022-10-13T13:04:19.098Z,15.80
2022-10-13T13:06:55.542Z,15.70
2022-10-13T13:09:38.847Z,15.73
2022-10-13T13:12:24.961Z,16.87
2022-10-13T13:14:55.399Z,17.17
2022-10-13T13:17:52.866Z,16.43
2022-10-13T13:20:23.234Z,16.13
2022-10-13T13:22:51.990Z,20.53
2022-10-13T13:25:21.696Z,17.80
2022-10-13T13:27:50.182Z,18.47
2022-10-13T13:30:19.855Z,17.87
2022-10-13T13:32:49.643Z,15.63
2022-10-13T13:35:17.914Z,18.63
2022-10-13T13:37:49.835Z,17.07
2022-10-13T13:40:21.857Z,17.47
2022-10-13T13:42:50.052Z,15.20
2022-10-13T13:45:20.504Z,17.83
2022-10-13T13:47:48.894Z,18.20
2022-10-13T13:50:19.950Z,18.03
2022-10-13T13:52:47.926Z,18.30
2022-10-13T13:55:16.625Z,18.47
2022-10-13T13:57:46.661Z,17.23
2022-10-13T14:00:16.462Z,18.63
2022-10-13T14:02:47.239Z,17.50
2022-10-13T14:05:20.433Z,18.53
2022-10-13T14:07:51.531Z,21.60
2022-10-13T14:10:25.150Z,19.30
2022-10-13T14:12:57.556Z,17.00
2022-10-13T14:15:29.895Z,18.70
2022-10-13T14:18:01.981Z,17.53
2022-10-13T14:20:32.766Z,18.37
2022-10-13T14:23:04.728Z,18.50
2022-10-13T14:25:35.214Z,20.40
2022-10-13T14:28:07.830Z,19.30
2022-10-13T14:30:38.099Z,18.70
2022-10-13T14:33:08.158Z,18.17
2022-10-13T14:35:39.891Z,24.93
2022-10-13T14:38:12.889Z,22.73
2022-10-13T14:40:44.292Z,20.60
2022-10-13T14:43:16.603Z,21.70
2022-10-13T14:45:46.359Z,18.77
2022-10-13T14:48:18.007Z,19.83
2022-10-13T14:50:50.821Z,19.17
2022-10-13T14:53:18.807Z,19.00
2022-10-13T14:55:48.224Z,20.63
2022-10-13T14:58:17.582Z,20.03
2022-10-13T15:00:45.642Z,20.30
2022-10-13T15:03:15.129Z,19.27
2022-10-13T15:05:43.328Z,21.00
2022-10-13T15:08:11.674Z,19.90
2022-10-13T15:10:39.529Z,21.20
2022-10-13T15:13:07.774Z,21.63
2022-10-13T15:15:39.536Z,36.80
2022-10-13T15:18:08.646Z,24.03
2022-10-13T15:20:39.698Z,20.87
2022-10-13T15:23:07.863Z,21.10
2022-10-13T15:25:35.936Z,20.87
2022-10-13T15:28:04.114Z,20.87
2022-10-13T15:30:35.976Z,21.70
2022-10-13T15:33:05.861Z,20.87
2022-10-13T15:35:37.732Z,20.60
2022-10-13T15:38:05.931Z,21.20
2022-10-13T15:40:35.843Z,22.00
2022-10-13T15:43:04.191Z,20.63
2022-10-13T15:45:32.694Z,22.90
2022-10-13T15:48:00.902Z,22.90
2022-10-13T15:50:30.767Z,22.27
2022-10-13T15:53:01.670Z,22.80
2022-10-13T15:55:33.449Z,23.10
2022-10-13T15:58:02.009Z,21.50
2022-10-13T16:00:30.299Z,24.13
2022-10-13T16:02:58.425Z,23.33
2022-10-13T16:05:26.557Z,23.87
2022-10-13T16:07:56.293Z,23.57
2022-10-13T16:10:26.207Z,23.20
2022-10-13T16:12:54.280Z,24.67
2022-10-13T16:15:22.413Z,25.20
2022-10-13T16:17:53.309Z,25.20
2022-10-13T16:23:34.498Z,27.27
2022-10-13T16:26:03.324Z,29.00
2022-10-13T16:28:31.676Z,28.10
2022-10-13T16:31:04.837Z,26.47
2022-10-13T16:33:36.612Z,28.40
2022-10-13T16:36:05.623Z,26.43
2022-10-13T16:38:35.935Z,28.97
2022-10-13T16:41:05.217Z,28.50
2022-10-13T16:43:33.447Z,28.63
2022-10-13T16:46:03.623Z,29.43
2022-10-13T16:48:33.409Z,26.73
2022-10-13T16:51:06.516Z,27.50
2022-10-13T16:53:36.174Z,28.70
2022-10-13T16:56:06.772Z,27.47
2022-10-13T16:58:35.583Z,29.97
2022-10-13T17:01:05.846Z,29.20
2022-10-13T17:03:34.086Z,29.60
2022-10-13T17:06:02.199Z,27.03
2022-10-13T17:08:30.262Z,26.47
2022-10-13T17:11:00.785Z,25.83
2022-10-13T17:13:33.735Z,25.57
2022-10-13T17:16:05.049Z,25.47
2022-10-13T17:18:35.176Z,27.77
2022-10-13T17:21:05.978Z,25.20
2022-10-13T17:23:34.093Z,25.73
2022-10-13T17:26:06.373Z,26.23
2022-10-13T17:28:34.716Z,24.80
2022-10-13T17:31:05.214Z,27.10
2022-10-13T17:33:35.840Z,24.27
2022-10-13T17:36:06.209Z,24.97
2022-10-13T17:38:34.986Z,27.47
2022-10-13T17:41:06.171Z,29.60
2022-10-13T17:43:35.768Z,28.07
2022-10-13T17:46:35.060Z,27.43
2022-10-13T17:49:01.740Z,29.17
2022-10-13T17:51:29.904Z,27.03
2022-10-13T17:54:00.299Z,30.60
2022-10-13T17:56:30.589Z,28.23
2022-10-13T17:59:00.045Z,27.23
2022-10-13T18:01:30.291Z,27.47
2022-10-13T18:04:00.397Z,29.97
2022-10-13T18:06:35.153Z,33.80
2022-10-13T18:09:06.317Z,34.80
2022-10-13T18:11:36.434Z,29.20
2022-10-13T18:14:05.188Z,30.70
2022-10-13T18:16:33.803Z,29.30
2022-10-13T18:19:02.764Z,28.43
2022-10-13T18:21:30.875Z,27.80
2022-10-13T18:24:01.229Z,28.30
2022-10-13T18:26:35.040Z,27.57
2022-10-13T18:29:06.821Z,26.97
2022-10-13T18:31:37.433Z,26.23
2022-10-13T18:34:07.600Z,26.80
2022-10-13T18:36:37.790Z,23.97
2022-10-13T18:39:08.641Z,25.50
2022-10-13T18:41:38.093Z,27.30
2022-10-13T18:44:08.928Z,27.27
2022-10-13T18:46:38.461Z,25.90
2022-10-13T18:49:09.237Z,26.87
2022-10-13T18:51:37.763Z,26.77
2022-10-13T18:54:06.710Z,28.37
2022-10-13T18:56:36.883Z,27.70
2022-10-13T18:59:08.987Z,28.87
2022-10-13T19:01:39.375Z,27.40
2022-10-13T19:04:08.676Z,32.57
2022-10-13T19:06:37.009Z,31.13
2022-10-13T19:09:09.708Z,27.50
2022-10-13T19:11:38.719Z,28.47
2022-10-13T19:14:12.069Z,28.90
2022-10-13T19:16:41.939Z,28.63
2022-10-13T19:19:10.375Z,26.30
2022-10-13T19:21:39.274Z,28.50
2022-10-13T19:24:08.119Z,26.90
2022-10-13T19:26:37.326Z,27.60
2022-10-13T19:29:09.166Z,33.30
2022-10-13T19:31:38.609Z,28.07
2022-10-13T19:34:07.032Z,28.60
2022-10-13T19:36:37.517Z,24.70
2022-10-13T19:39:10.832Z,25.10
2022-10-13T19:41:40.336Z,25.70
2022-10-13T19:44:11.046Z,22.43
2022-10-13T19:46:39.685Z,21.30
2022-10-13T19:49:08.001Z,18.80
2022-10-13T19:51:38.318Z,18.27
2022-10-13T19:54:06.820Z,18.10
2022-10-13T19:56:34.971Z,20.17
2022-10-13T19:59:05.502Z,17.57
2022-10-13T20:01:39.809Z,15.80
2022-10-13T20:04:08.251Z,16.50
2022-10-13T20:06:36.765Z,14.90
2022-10-13T20:09:05.415Z,15.37
2022-10-13T20:11:33.978Z,14.10
2022-10-13T20:14:02.193Z,14.57
2022-10-13T20:16:30.807Z,13.10
2022-10-13T20:19:01.674Z,12.80
2022-10-13T20:21:30.358Z,12.40
2022-10-13T20:23:58.769Z,13.70
2022-10-13T20:26:27.401Z,13.00
2022-10-13T20:28:55.838Z,13.50
2022-10-13T20:31:25.246Z,13.20
2022-10-13T20:33:56.063Z,12.00
2022-10-13T20:36:28.644Z,12.30
2022-10-13T20:38:57.040Z,11.00
2022-10-13T20:41:28.438Z,11.50
2022-10-13T20:43:58.394Z,10.67
2022-10-13T20:46:27.667Z,11.50
2022-10-13T20:49:13.439Z,12.10
2022-10-13T20:51:44.240Z,10.73
2022-10-13T20:54:14.587Z,11.13
2022-10-13T20:56:43.283Z,11.40
2022-10-13T20:59:14.580Z,10.70
2022-10-13T21:01:43.032Z,10.10
2022-10-13T21:04:11.278Z,10.60
2022-10-13T21:06:40.075Z,9.97
2022-10-13T21:09:10.270Z,10.67
2022-10-13T21:11:39.643Z,10.90
2022-10-13T21:14:09.795Z,11.30
2022-10-13T21:16:39.481Z,10.00
2022-10-13T21:19:08.882Z,9.37
2022-10-13T21:21:37.912Z,9.20
2022-10-13T21:24:08.295Z,10.43
2022-10-13T21:26:38.940Z,10.70
2022-10-13T21:29:07.317Z,11.60
2022-10-13T21:31:36.031Z,12.00
2022-10-13T21:34:04.539Z,11.67
2022-10-13T21:36:34.778Z,10.63
2022-10-13T21:39:05.271Z,10.40
2022-10-13T21:41:33.535Z,13.90
2022-10-13T21:44:03.773Z,12.20
2022-10-13T21:46:34.023Z,13.23
2022-10-13T21:49:04.079Z,14.37
2022-10-13T21:51:34.018Z,14.70
2022-10-13T21:54:04.125Z,13.60
2022-10-13T21:56:33.620Z,15.13
2022-10-13T21:59:03.804Z,13.80
2022-10-13T22:01:32.290Z,14.13
2022-10-13T22:04:04.731Z,13.27
2022-10-13T22:06:34.398Z,14.77
2022-10-13T22:09:05.114Z,14.60
2022-10-13T22:11:36.664Z,13.70
2022-10-13T22:14:07.302Z,13.43
2022-10-13T22:16:39.187Z,14.57
2022-10-13T22:19:08.213Z,14.17
2022-10-13T22:21:38.597Z,15.87
2022-10-13T22:24:09.607Z,14.10
2022-10-13T22:26:39.047Z,14.90
2022-10-13T22:29:10.102Z,15.23
2022-10-13T22:31:38.592Z,15.30
2022-10-13T22:34:07.051Z,15.73
2022-10-13T22:36:38.041Z,15.07
2022-10-13T22:39:07.913Z,14.10
2022-10-13T22:41:36.397Z,15.27
2022-10-13T22:44:05.100Z,16.00
2022-10-13T22:46:37.578Z,14.50
2022-10-13T22:49:06.486Z,15.90
2022-10-13T22:51:36.151Z,17.10
2022-10-13T22:54:05.593Z,15.80
2022-10-13T22:56:38.746Z,16.80
2022-10-13T22:59:09.096Z,17.00
2022-10-13T23:01:38.649Z,18.17
2022-10-13T23:04:07.805Z,16.83
2022-10-13T23:06:37.048Z,17.50
2022-10-13T23:09:07.906Z,18.23
2022-10-13T23:11:36.124Z,17.07
2022-10-13T23:14:04.342Z,18.43
2022-10-13T23:16:32.446Z,19.90
2022-10-13T23:19:02.206Z,19.60
2022-10-13T23:21:31.773Z,21.47
2022-10-13T23:24:01.620Z,19.30
2022-10-13T23:26:30.065Z,20.40
2022-10-13T23:28:59.447Z,20.40
2022-10-13T23:31:28.727Z,19.77
2022-10-13T23:33:57.171Z,20.53
2022-10-13T23:36:28.784Z,19.33
2022-10-13T23:38:58.273Z,20.53
2022-10-13T23:41:28.451Z,19.93
2022-10-13T23:43:57.028Z,19.43
2022-10-13T23:46:25.513Z,19.40
2022-10-13T23:48:53.609Z,19.90
2022-10-13T23:51:24.078Z,19.07
2022-10-13T23:53:54.000Z,20.70
2022-10-13T23:56:22.149Z,18.83
2022-10-13T23:58:50.811Z,17.57
